Time;durP1;ratioP1;P1;durP2;ratioP2;P2;SDS_P1;SDS_P2;PMS_P1;PMS_P2;Temp;Humidity;BMP_temperature;BMP_pressure;BME280_temperature;BME280_humidity;BME280_pressure;Samples;Min_cycle;Max_cycle;Signal;HPM_P1;HPM_P2
2021/09/19 00:00:15;;;;;;;14.43;12.80;;;10.50;99.90;;;;;;5021911;28;20452;-89
2021/09/19 00:02:42;;;;;;;14.10;12.70;;;;;;;;;;5022141;28;20547;-91
2021/09/19 00:05:11;;;;;;;15.40;13.53;;;10.30;99.90;;;;;;5022743;28;20452;-89
2021/09/19 00:07:38;;;;;;;15.17;13.50;;;;;;;;;;5021764;28;20503;-91
2021/09/19 00:10:07;;;;;;;14.37;12.87;;;10.00;99.90;;;;;;5020051;28;20475;-90
2021/09/19 00:12:34;;;;;;;15.47;13.30;;;;;;;;;;5022165;28;20449;-90
2021/09/19 00:15:02;;;;;;;15.00;12.43;;;;;;;;;;5023017;28;20511;-89
2021/09/19 00:17:30;;;;;;;12.37;11.10;;;10.30;99.90;;;;;;5022016;28;20569;-90
2021/09/19 00:19:57;;;;;;;13.27;11.77;;;;;;;;;;5020532;28;20480;-90
2021/09/19 00:22:25;;;;;;;14.97;12.57;;;;;;;;;;5021509;28;20480;-89
2021/09/19 00:24:52;;;;;;;12.90;11.60;;;;;;;;;;5020556;28;20456;-90
2021/09/19 00:27:20;;;;;;;13.30;11.97;;;;;;;;;;5021232;28;20878;-90
2021/09/19 00:29:48;;;;;;;12.67;10.97;;;;;;;;;;5018283;28;20570;-92
2021/09/19 00:32:15;;;;;;;12.50;11.23;;;;;;;;;;5020520;28;20441;-90
2021/09/19 00:34:43;;;;;;;11.83;10.60;;;;;;;;;;5019856;28;20499;-91
2021/09/19 00:37:11;;;;;;;12.03;10.77;;;;;;;;;;5020075;28;20448;-89
2021/09/19 00:39:38;;;;;;;14.10;11.27;;;;;;;;;;5020779;28;20456;-90
2021/09/19 00:42:06;;;;;;;13.33;12.00;;;;;;;;;;5020046;28;20448;-91
2021/09/19 00:44:33;;;;;;;15.20;10.43;;;;;;;;;;5021368;28;20428;-90
2021/09/19 00:47:00;;;;;;;12.37;11.07;;;;;;;;;;5019991;28;20528;-91
2021/09/19 00:49:28;;;;;;;12.50;11.30;;;;;;;;;;5027941;28;20448;-89
2021/09/19 00:51:57;;;;;;;13.50;12.07;;;;;;;;;;5029485;28;20440;-89
2021/09/19 00:54:28;;;;;;;14.87;11.80;;;10.10;99.90;;;;;;5026180;28;20495;-90
2021/09/19 00:56:59;;;;;;;11.73;10.50;;;10.10;99.90;;;;;;5026987;28;20450;-90
2021/09/19 00:59:29;;;;;;;14.60;12.63;;;;;;;;;;5026109;28;20436;-91
2021/09/19 01:01:58;;;;;;;17.00;12.67;;;;;;;;;;5020835;28;20448;-89
2021/09/19 01:04:26;;;;;;;17.73;15.83;;;;;;;;;;5018127;28;20533;-91
2021/09/19 01:06:54;;;;;;;17.10;14.10;;;;;;;;;;5017885;28;20448;-90
2021/09/19 01:09:24;;;;;;;19.47;15.67;;;;;;;;;;5015226;28;20469;-90
2021/09/19 01:11:52;;;;;;;19.17;15.93;;;;;;;;;;5017440;28;20461;-90
2021/09/19 01:14:27;;;;;;;22.63;16.37;;;10.00;99.90;;;;;;5020196;28;20488;-90
2021/09/19 01:16:56;;;;;;;23.50;19.77;;;;;;;;;;5019155;28;20432;-89
2021/09/19 01:19:24;;;;;;;18.20;14.90;;;10.10;99.90;;;;;;5021081;28;20491;-90
2021/09/19 01:21:54;;;;;;;19.00;16.23;;;10.00;99.90;;;;;;5019083;28;20491;-89
2021/09/19 01:24:26;;;;;;;18.30;15.73;;;;;;;;;;5018806;28;20457;-90
2021/09/19 01:26:53;;;;;;;18.27;15.73;;;;;;;;;;5021217;28;20463;-90
2021/09/19 01:29:20;;;;;;;16.13;13.57;;;;;;;;;;5025547;28;20458;-90
2021/09/19 01:31:48;;;;;;;16.83;12.60;;;;;;;;;;5023467;28;20539;-91
2021/09/19 01:34:15;;;;;;;15.20;12.53;;;;;;;;;;5026925;28;20583;-89
2021/09/19 01:36:43;;;;;;;15.37;13.10;;;;;;;;;;5029456;28;20451;-89
2021/09/19 01:39:11;;;;;;;13.53;12.03;;;;;;;;;;5021228;28;20467;-89
2021/09/19 01:41:39;;;;;;;17.87;13.63;;;;;;;;;;5040858;23;20483;-91
2021/09/19 01:44:07;;;;;;;15.40;13.77;;;9.80;99.90;;;;;;5047312;28;20850;-91
2021/09/19 01:46:35;;;;;;;15.80;14.10;;;;;;;;;;5047136;28;20473;-89
2021/09/19 01:49:02;;;;;;;17.17;15.33;;;;;;;;;;5046638;28;20450;-89
2021/09/19 01:51:30;;;;;;;19.57;14.73;;;;;;;;;;5046808;28;20451;-91
2021/09/19 01:53:57;;;;;;;18.63;14.23;;;;;;;;;;5047966;28;20467;-91
2021/09/19 01:56:25;;;;;;;14.80;13.20;;;9.70;99.90;;;;;;5054528;23;20841;-91
2021/09/19 01:58:56;;;;;;;17.10;13.47;;;9.70;99.90;;;;;;5045252;28;20474;-89
2021/09/19 02:01:24;;;;;;;13.63;11.83;;;9.70;99.90;;;;;;5046426;28;20443;-89
2021/09/19 02:03:52;;;;;;;13.87;12.30;;;9.70;99.90;;;;;;5043845;28;20436;-90
2021/09/19 02:06:19;;;;;;;12.60;11.30;;;;;;;;;;5046770;28;20432;-90
2021/09/19 02:08:47;;;;;;;14.27;11.70;;;;;;;;;;5046956;28;20470;-91
2021/09/19 02:11:15;;;;;;;11.13;10.03;;;9.60;99.90;;;;;;5045557;28;20451;-90
2021/09/19 02:13:44;;;;;;;13.47;10.90;;;9.60;99.90;;;;;;5042424;28;20503;-90
2021/09/19 02:16:20;;;;;;;14.17;10.50;;;9.60;99.90;;;;;;5043331;28;20439;-90
2021/09/19 02:18:48;;;;;;;11.40;10.20;;;;;;;;;;5053636;23;20491;-91
2021/09/19 02:21:16;;;;;;;10.87;9.37;;;;;;;;;;5050438;28;20427;-90
2021/09/19 02:23:43;;;;;;;11.83;10.07;;;;;;;;;;5046921;28;20439;-90
2021/09/19 02:26:11;;;;;;;13.53;9.83;;;;;;;;;;5044168;28;20456;-90
2021/09/19 02:28:38;;;;;;;11.70;10.00;;;;;;;;;;5045267;28;20452;-90
2021/09/19 02:31:05;;;;;;;12.30;10.23;;;;;;;;;;5046501;28;20452;-89
2021/09/19 02:33:34;;;;;;;10.93;9.40;;;;;;;;;;5045465;28;20432;-93
2021/09/19 02:36:01;;;;;;;10.80;8.87;;;;;;;;;;5046286;28;20491;-91
2021/09/19 02:38:29;;;;;;;11.03;9.67;;;;;;;;;;5046451;28;20431;-90
2021/09/19 02:40:56;;;;;;;15.23;10.00;;;;;;;;;;5045941;28;20435;-90
2021/09/19 02:43:24;;;;;;;12.70;9.30;;;9.40;99.90;;;;;;5045934;28;20432;-90
2021/09/19 02:45:52;;;;;;;11.80;10.60;;;;;;;;;;5043499;28;20455;-90
2021/09/19 02:48:19;;;;;;;11.33;10.13;;;;;;;;;;5042962;28;20462;-91
2021/09/19 02:50:47;;;;;;;12.93;10.77;;;9.40;99.90;;;;;;5043770;28;20432;-91
2021/09/19 02:53:14;;;;;;;11.23;10.13;;;;;;;;;;5045109;28;20439;-90
2021/09/19 02:55:42;;;;;;;12.57;11.27;;;;;;;;;;5041582;28;20502;-91
2021/09/19 02:58:09;;;;;;;11.90;9.90;;;;;;;;;;5045235;28;20419;-90
2021/09/19 03:00:37;;;;;;;13.03;10.30;;;;;;;;;;5043408;28;20439;-90
2021/09/19 03:03:04;;;;;;;12.53;10.40;;;;;;;;;;5044298;28;20439;-90
2021/09/19 03:05:31;;;;;;;11.23;9.93;;;;;;;;;;5044279;28;20448;-90
2021/09/19 03:08:00;;;;;;;10.67;9.50;;;;;;;;;;5045744;28;20467;-89
2021/09/19 03:10:27;;;;;;;11.87;10.10;;;;;;;;;;5045653;28;20938;-91
2021/09/19 03:12:54;;;;;;;11.30;10.10;;;;;;;;;;5045923;28;20458;-90
2021/09/19 03:15:24;;;;;;;9.83;8.83;;;;;;;;;;5041424;28;20475;-90
2021/09/19 03:17:51;;;;;;;10.40;8.70;;;;;;;;;;5043006;28;20503;-89
2021/09/19 03:20:18;;;;;;;15.27;9.30;;;;;;;;;;5042034;28;20428;-90
2021/09/19 03:22:46;;;;;;;11.97;8.97;;;9.20;99.90;;;;;;5041633;28;20432;-91
2021/09/19 03:25:16;;;;;;;10.47;9.40;;;9.10;99.90;;;;;;5033968;28;20455;-90
2021/09/19 03:27:44;;;;;;;10.07;7.90;;;9.10;99.90;;;;;;5042105;28;20451;-90
2021/09/19 03:30:13;;;;;;;13.63;10.13;;;9.10;99.90;;;;;;5037155;28;20448;-92
2021/09/19 03:32:40;;;;;;;10.87;8.67;;;;;;;;;;5040705;28;20451;-92
2021/09/19 03:35:08;;;;;;;11.13;8.43;;;;;;;;;;5039078;28;20467;-91
2021/09/19 03:37:35;;;;;;;11.17;8.83;;;9.10;99.90;;;;;;5000887;28;20448;-91
2021/09/19 03:40:03;;;;;;;12.10;9.87;;;;;;;;;;5001895;28;20450;-89
2021/09/19 03:42:33;;;;;;;9.87;8.83;;;;;;;;;;4996899;28;20457;-90
2021/09/19 03:45:00;;;;;;;12.80;9.93;;;;;;;;;;4997687;28;20429;-90
2021/09/19 03:47:27;;;;;;;11.30;8.73;;;;;;;;;;4998943;28;20452;-90
2021/09/19 03:49:55;;;;;;;11.37;9.50;;;;;;;;;;5001013;28;20445;-90
2021/09/19 03:52:22;;;;;;;9.13;8.23;;;;;;;;;;5001986;28;20558;-90
2021/09/19 03:54:50;;;;;;;11.37;9.17;;;8.90;99.90;;;;;;5007266;28;20476;-92
2021/09/19 03:57:17;;;;;;;10.30;8.40;;;;;;;;;;5040806;28;20435;-90
2021/09/19 03:59:45;;;;;;;13.37;9.90;;;8.80;99.90;;;;;;5040764;28;20471;-91
2021/09/19 04:02:12;;;;;;;11.20;9.83;;;;;;;;;;5035963;28;20758;-91
2021/09/19 04:04:39;;;;;;;10.27;8.87;;;;;;;;;;5040988;28;20432;-93
2021/09/19 04:07:07;;;;;;;11.53;8.90;;;;;;;;;;5039355;28;20470;-90
2021/09/19 04:09:34;;;;;;;11.70;9.10;;;;;;;;;;5002424;28;20490;-91
2021/09/19 04:12:02;;;;;;;10.70;8.77;;;;;;;;;;5038801;28;20470;-90
2021/09/19 04:14:29;;;;;;;11.00;8.47;;;;;;;;;;5038721;28;20435;-89
2021/09/19 04:16:58;;;;;;;10.87;8.10;;;;;;;;;;5037544;28;20432;-93
2021/09/19 04:19:25;;;;;;;10.23;9.10;;;;;;;;;;5038366;28;20428;-91
2021/09/19 04:21:52;;;;;;;10.33;8.43;;;;;;;;;;5038352;28;20992;-89
2021/09/19 04:24:20;;;;;;;10.10;9.10;;;;;;;;;;5038787;28;20454;-91
2021/09/19 04:26:54;;;;;;;9.80;8.80;;;;;;;;;;5028274;28;20474;-94
2021/09/19 04:29:23;;;;;;;11.50;8.50;;;;;;;;;;5025409;28;20449;-90
2021/09/19 04:31:52;;;;;;;8.87;7.70;;;;;;;;;;5022282;28;20447;-92
2021/09/19 04:34:30;;;;;;;13.53;8.67;;;;;;;;;;5023694;28;20831;-90
2021/09/19 04:37:07;;;;;;;13.60;9.37;;;;;;;;;;5021697;28;20882;-90
2021/09/19 04:39:38;;;;;;;11.63;8.60;;;;;;;;;;5023078;28;20456;-90
2021/09/19 04:42:14;;;;;;;9.27;7.90;;;;;;;;;;5020458;28;20538;-90
2021/09/19 04:44:42;;;;;;;10.43;8.47;;;;;;;;;;5028465;28;20440;-89
2021/09/19 04:47:23;;;;;;;9.50;8.07;;;8.70;99.90;;;;;;5024890;28;20451;-90
2021/09/19 04:49:55;;;;;;;9.30;7.87;;;;;;;;;;5031281;28;20440;-89
2021/09/19 04:52:24;;;;;;;9.00;7.73;;;;;;;;;;5028990;28;20495;-87
2021/09/19 04:54:55;;;;;;;9.17;7.73;;;;;;;;;;5023339;28;20447;-88
2021/09/19 04:57:23;;;;;;;10.80;8.73;;;;;;;;;;5019300;28;20451;-89
2021/09/19 04:59:58;;;;;;;8.57;7.67;;;;;;;;;;5032805;28;20771;-89
2021/09/19 05:02:26;;;;;;;9.73;8.07;;;;;;;;;;5045373;28;20474;-94
2021/09/19 05:04:58;;;;;;;13.93;8.63;;;;;;;;;;5045506;28;20435;-94
2021/09/19 05:10:10;;;;;;;10.20;8.53;;;8.90;99.90;;;;;;5036651;28;20443;-92
2021/09/19 05:15:22;;;;;;;10.13;8.10;;;;;;;;;;5039950;28;20561;-95
2021/09/19 05:17:58;;;;;;;9.63;8.40;;;;;;;;;;5034987;28;20472;-96
2021/09/19 05:20:28;;;;;;;11.80;7.83;;;;;;;;;;5032736;28;20543;-92
2021/09/19 05:23:09;;;;;;;13.47;8.97;;;;;;;;;;5029374;28;20439;-91
2021/09/19 05:25:37;;;;;;;12.83;8.53;;;;;;;;;;5040075;28;20424;-91
2021/09/19 05:28:05;;;;;;;9.13;8.23;;;;;;;;;;4993820;28;20440;-90
2021/09/19 05:30:32;;;;;;;12.10;9.10;;;;;;;;;;4985219;28;20450;-91
2021/09/19 05:33:00;;;;;;;9.47;7.70;;;;;;;;;;4969572;28;20444;-91
2021/09/19 05:35:33;;;;;;;10.23;8.07;;;;;;;;;;4962853;28;20555;-95
2021/09/19 05:38:05;;;;;;;9.80;7.90;;;;;;;;;;4966823;28;20904;-92
2021/09/19 05:40:34;;;;;;;10.47;7.80;;;;;;;;;;4968489;28;20461;-92
2021/09/19 05:43:04;;;;;;;10.57;8.77;;;;;;;;;;4977900;28;20445;-89
2021/09/19 05:45:34;;;;;;;10.03;8.00;;;;;;;;;;4985267;28;20459;-88
2021/09/19 05:48:05;;;;;;;8.97;8.07;;;;;;;;;;5022037;28;20440;-90
2021/09/19 05:50:34;;;;;;;10.20;9.10;;;;;;;;;;5018769;28;20456;-91
2021/09/19 05:53:01;;;;;;;9.60;7.77;;;;;;;;;;5030866;28;20429;-89
2021/09/19 05:55:30;;;;;;;7.87;7.07;;;;;;;;;;5018498;28;20499;-95
2021/09/19 05:57:57;;;;;;;9.83;7.93;;;;;;;;;;5018105;28;20452;-89
2021/09/19 06:00:24;;;;;;;11.80;9.37;;;;;;;;;;5021115;28;20928;-91
2021/09/19 06:02:51;;;;;;;11.03;8.00;;;;;;;;;;5020594;28;20458;-88
2021/09/19 06:05:18;;;;;;;12.63;7.97;;;;;;;;;;5019346;28;20523;-94
2021/09/19 06:07:47;;;;;;;8.73;7.83;;;;;;;;;;5018729;28;20468;-92
2021/09/19 06:10:14;;;;;;;8.70;7.90;;;;;;;;;;5025574;28;20451;-91
2021/09/19 06:12:46;;;;;;;9.40;8.50;;;;;;;;;;5034890;28;20796;-89
2021/09/19 06:15:14;;;;;;;10.10;8.40;;;;;;;;;;5019439;28;20453;-96
2021/09/19 06:17:45;;;;;;;9.87;8.90;;;;;;;;;;5027573;28;20815;-95
2021/09/19 06:20:18;;;;;;;13.10;8.87;;;;;;;;;;5030907;28;20447;-94
2021/09/19 06:22:48;;;;;;;8.80;7.97;;;;;;;;;;5022627;28;20450;-92
2021/09/19 06:25:17;;;;;;;9.47;8.60;;;12.90;99.90;;;;;;5032878;28;20931;-88
2021/09/19 06:27:45;;;;;;;9.27;8.07;;;;;;;;;;5022311;28;20444;-91
2021/09/19 06:30:16;;;;;;;9.03;8.13;;;13.30;99.90;;;;;;5019036;28;20443;-88
2021/09/19 06:32:46;;;;;;;9.43;8.57;;;13.60;99.90;;;;;;5022013;28;20447;-90
2021/09/19 06:35:16;;;;;;;8.63;7.83;;;;;;;;;;5017700;28;20449;-90
2021/09/19 06:37:43;;;;;;;7.43;6.83;;;;;;;;;;5029024;28;20447;-89
2021/09/19 06:40:11;;;;;;;8.10;7.40;;;;;;;;;;5037213;28;20450;-90
2021/09/19 06:42:39;;;;;;;7.60;6.97;;;14.70;99.90;;;;;;5044629;28;20470;-91
2021/09/19 06:45:07;;;;;;;7.47;6.50;;;;;;;;;;5050429;28;20418;-91
2021/09/19 06:47:34;;;;;;;7.00;6.40;;;;;;;;;;5051412;28;20428;-93
2021/09/19 06:50:02;;;;;;;6.97;6.37;;;;;;;;;;5048254;28;20435;-93
2021/09/19 06:52:29;;;;;;;7.00;6.40;;;;;;;;;;5045416;28;20447;-93
2021/09/19 06:54:58;;;;;;;8.80;6.60;;;15.70;99.90;;;;;;5048141;28;20458;-93
2021/09/19 06:57:25;;;;;;;6.50;5.90;;;;;;;;;;5025530;28;20499;-93
2021/09/19 06:59:56;;;;;;;7.23;6.63;;;;;;;;;;5022972;28;20449;-93
2021/09/19 07:02:23;;;;;;;7.20;6.60;;;;;;;;;;5020792;28;20475;-92
2021/09/19 07:04:50;;;;;;;6.20;5.60;;;;;;;;;;5020388;28;20459;-92
2021/09/19 07:07:18;;;;;;;6.97;6.37;;;;;;;;;;5020877;28;20468;-95
2021/09/19 07:09:45;;;;;;;6.40;5.80;;;;;;;;;;5017371;28;20539;-90
2021/09/19 07:12:13;;;;;;;8.10;5.80;;;;;;;;;;5020168;28;20445;-91
2021/09/19 07:14:40;;;;;;;6.60;6.00;;;;;;;;;;5020570;28;20995;-90
2021/09/19 07:17:08;;;;;;;6.60;6.10;;;16.90;99.90;;;;;;5022934;28;20481;-91
2021/09/19 07:19:35;;;;;;;6.20;5.70;;;;;;;;;;5019208;28;20460;-94
2021/09/19 07:22:02;;;;;;;7.70;6.90;;;;;;;;;;5029634;28;20443;-92
2021/09/19 07:24:30;;;;;;;7.67;6.20;;;;;;;;;;5041890;28;20989;-92
2021/09/19 07:27:17;;;;;;;6.33;5.83;;;17.10;99.90;;;;;;5045528;22;20496;-90
2021/09/19 07:29:45;;;;;;;6.97;6.40;;;;;;;;;;5032955;28;20441;-96
2021/09/19 07:32:14;;;;;;;7.17;6.57;;;17.50;99.90;;;;;;5029631;28;20437;-95
2021/09/19 07:34:41;;;;;;;8.30;6.60;;;;;;;;;;5017710;28;20495;-93
2021/09/19 07:37:08;;;;;;;7.00;6.40;;;;;;;;;;5022935;28;20869;-92
2021/09/19 07:39:36;;;;;;;7.20;6.70;;;18.30;99.90;;;;;;5025067;28;20443;-94
2021/09/19 07:42:05;;;;;;;6.97;6.30;;;18.40;99.90;;;;;;5021143;28;20437;-95
2021/09/19 07:44:34;;;;;;;6.57;5.97;;;;;;;;;;5022951;28;20457;-89
2021/09/19 07:47:02;;;;;;;6.63;5.93;;;;;;;;;;5024458;28;20787;-95
2021/09/19 07:49:31;;;;;;;6.00;5.50;;;18.00;99.90;;;;;;5024092;28;20802;-92
2021/09/19 07:51:58;;;;;;;6.93;6.33;;;;;;;;;;5006314;28;20517;-93
2021/09/19 07:54:26;;;;;;;6.27;5.67;;;;;;;;;;5005628;28;20441;-91
2021/09/19 07:56:53;;;;;;;6.57;5.97;;;;;;;;;;5005554;28;20489;-91
2021/09/19 07:59:36;;;;;;;6.07;5.60;;;19.50;99.90;;;;;;5026216;23;20487;-92
2021/09/19 08:02:04;;;;;;;6.70;6.00;;;;;;;;;;5051929;23;20487;-91
2021/09/19 08:07:00;;;;;;;6.73;6.23;;;;;;;;;;5045031;22;20511;-95
2021/09/19 08:09:32;;;;;;;6.33;5.73;;;19.30;99.90;;;;;;5047562;28;20193;-93
2021/09/19 08:12:00;;;;;;;7.03;6.50;;;;;;;;;;5039628;28;20470;-94
2021/09/19 08:14:27;;;;;;;6.60;6.10;;;;;;;;;;5037933;28;20797;-93
2021/09/19 08:16:55;;;;;;;6.67;6.17;;;;;;;;;;5035871;28;20483;-94
2021/09/19 08:19:23;;;;;;;6.67;6.07;;;;;;;;;;5041813;23;20500;-92
2021/09/19 08:21:51;;;;;;;6.80;6.20;;;;;;;;;;5014892;28;20460;-92
2021/09/19 08:24:22;;;;;;;6.83;6.23;;;;;;;;;;5020099;28;20479;-93
2021/09/19 08:26:49;;;;;;;6.47;5.97;;;;;;;;;;5025477;28;20463;-92
2021/09/19 08:29:20;;;;;;;5.37;4.87;;;20.90;99.90;;;;;;5017767;28;20571;-94
2021/09/19 08:31:47;;;;;;;7.10;5.60;;;;;;;;;;5029469;28;20455;-94
2021/09/19 08:34:14;;;;;;;6.73;6.23;;;;;;;;;;5033282;28;20479;-95
2021/09/19 08:36:44;;;;;;;6.43;5.83;;;;;;;;;;5035609;28;20497;-94
2021/09/19 08:39:11;;;;;;;6.30;5.80;;;;;;;;;;5023138;28;20457;-90
2021/09/19 08:41:40;;;;;;;6.83;6.33;;;;;;;;;;5014068;28;20437;-92
2021/09/19 08:44:07;;;;;;;5.93;5.43;;;;;;;;;;5014430;28;20457;-93
2021/09/19 08:46:35;;;;;;;6.23;5.63;;;;;;;;;;5011310;28;20448;-92
2021/09/19 08:49:21;;;;;;;7.00;6.37;;;;;;;;;;5014118;28;20794;-92
2021/09/19 08:51:48;;;;;;;6.83;6.30;;;;;;;;;;5017533;28;20448;-91
2021/09/19 08:54:19;;;;;;;6.80;6.20;;;21.80;99.90;;;;;;5016854;28;20456;-91
2021/09/19 08:56:48;;;;;;;6.77;6.20;;;22.00;99.90;;;;;;5016621;28;20480;-92
2021/09/19 08:59:16;;;;;;;7.10;6.50;;;;;;;;;;5013858;28;20456;-94
2021/09/19 09:01:59;;;;;;;6.90;6.40;;;22.90;99.90;;;;;;5014095;28;20461;-90
2021/09/19 09:04:26;;;;;;;6.73;6.17;;;;;;;;;;5014344;28;20606;-94
2021/09/19 09:06:54;;;;;;;7.40;6.03;;;;;;;;;;5014162;28;20975;-91
2021/09/19 09:09:21;;;;;;;7.73;5.80;;;;;;;;;;5012129;28;20440;-93
2021/09/19 09:12:03;;;;;;;7.10;6.50;;;;;;;;;;5012569;28;20437;-91
2021/09/19 09:14:30;;;;;;;6.67;6.07;;;;;;;;;;4996901;28;20448;-92
2021/09/19 09:17:16;;;;;;;5.67;5.20;;;23.10;98.60;;;;;;4994225;28;20477;-95
2021/09/19 09:19:44;;;;;;;6.80;6.30;;;22.90;99.80;;;;;;4996439;28;20571;-92
2021/09/19 09:22:11;;;;;;;7.80;7.10;;;;;;;;;;4993449;28;20933;-91
2021/09/19 09:24:39;;;;;;;6.70;5.67;;;;;;;;;;4997953;28;20477;-92
2021/09/19 09:27:38;;;;;;;7.03;6.40;;;23.60;98.40;;;;;;4996204;28;20461;-94
2021/09/19 09:30:06;;;;;;;5.57;5.17;;;;;;;;;;5000550;28;20454;-92
2021/09/19 09:32:33;;;;;;;6.77;6.07;;;;;;;;;;5006048;28;20480;-90
2021/09/19 09:35:11;;;;;;;6.73;6.03;;;24.40;97.30;;;;;;5005681;28;20937;-91
2021/09/19 09:37:41;;;;;;;6.83;4.97;;;;;;;;;;5007385;28;20543;-91
2021/09/19 09:40:17;;;;;;;6.57;6.07;;;24.40;96.20;;;;;;5009921;28;20800;-93
2021/09/19 09:43:17;;;;;;;5.87;5.37;;;24.20;97.70;;;;;;5004827;28;20447;-95
2021/09/19 09:45:46;;;;;;;9.10;6.20;;;24.50;95.70;;;;;;5000860;28;20441;-93
2021/09/19 09:48:29;;;;;;;6.87;6.27;;;24.70;95.50;;;;;;5028451;28;20471;-94
2021/09/19 09:51:02;;;;;;;6.27;5.77;;;24.50;97.20;;;;;;5043192;28;20439;-96
2021/09/19 09:53:30;;;;;;;6.80;6.23;;;;;;;;;;5042824;28;20786;-93
2021/09/19 09:55:59;;;;;;;6.77;6.17;;;25.40;94.30;;;;;;5046594;28;20465;-90
2021/09/19 09:58:27;;;;;;;6.67;6.07;;;;;;;;;;5034649;28;20601;-92
2021/09/19 10:00:57;;;;;;;7.27;6.63;;;23.50;97.40;;;;;;5039790;28;20451;-91
2021/09/19 10:03:24;;;;;;;7.07;6.47;;;;;;;;;;5042301;28;20452;-94
2021/09/19 10:05:52;;;;;;;7.93;7.23;;;;;;;;;;5041411;28;20447;-92
2021/09/19 10:08:22;;;;;;;7.07;6.47;;;23.80;96.70;;;;;;4998351;28;20449;-95
2021/09/19 10:10:50;;;;;;;7.23;6.63;;;;;;;;;;4994793;28;20500;-91
2021/09/19 10:13:18;;;;;;;7.37;6.77;;;;;;;;;;4996524;28;20460;-93
2021/09/19 10:15:47;;;;;;;7.07;6.47;;;;;;;;;;4994326;28;20437;-93
2021/09/19 10:18:30;;;;;;;7.57;6.83;;;25.60;93.60;;;;;;5001099;28;20507;-93
2021/09/19 10:21:02;;;;;;;6.60;6.00;;;24.90;94.10;;;;;;4996464;28;20549;-91
2021/09/19 10:23:33;;;;;;;7.77;6.97;;;23.20;97.80;;;;;;4973007;28;20481;-89
2021/09/19 10:26:07;;;;;;;7.50;6.77;;;24.20;96.90;;;;;;4945560;28;20823;-90
2021/09/19 10:28:38;;;;;;;6.10;5.50;;;24.70;95.60;;;;;;4970654;28;20549;-90
2021/09/19 10:31:35;;;;;;;7.33;6.63;;;25.50;93.10;;;;;;4976353;28;20570;-94
2021/09/19 10:34:05;;;;;;;7.30;6.60;;;25.50;93.90;;;;;;4978378;28;20447;-91
2021/09/19 10:36:35;;;;;;;8.07;7.37;;;25.50;93.70;;;;;;4975342;28;20459;-91
2021/09/19 10:39:16;;;;;;;7.30;5.93;;;25.90;93.10;;;;;;4979816;28;20454;-92
2021/09/19 10:42:21;;;;;;;8.70;7.90;;;25.40;91.70;;;;;;4992395;28;20469;-91
2021/09/19 10:44:57;;;;;;;7.13;6.40;;;24.70;93.40;;;;;;4988785;28;20532;-92
2021/09/19 10:47:37;;;;;;;6.47;5.87;;;22.70;99.90;;;;;;4974502;28;20450;-92
2021/09/19 10:50:29;;;;;;;6.20;5.47;;;22.20;99.10;;;;;;4977377;28;20484;-90
2021/09/19 10:52:58;;;;;;;6.93;6.33;;;22.00;99.90;;;;;;4976812;28;20458;-91
2021/09/19 10:55:37;;;;;;;6.33;5.83;;;23.20;99.60;;;;;;4976732;28;20450;-91
2021/09/19 10:58:07;;;;;;;7.07;6.47;;;24.10;97.90;;;;;;4976453;28;20493;-90
2021/09/19 11:00:35;;;;;;;6.70;6.10;;;24.90;97.70;;;;;;4975404;28;21000;-89
2021/09/19 11:03:12;;;;;;;6.77;6.13;;;24.70;99.90;;;;;;4976599;28;21213;-91
2021/09/19 11:05:44;;;;;;;5.90;5.40;;;24.10;97.20;;;;;;4972251;28;20521;-90
2021/09/19 11:08:17;;;;;;;7.90;5.40;;;22.80;99.40;;;;;;4977086;28;20465;-91
2021/09/19 11:11:10;;;;;;;6.80;6.20;;;22.60;99.40;;;;;;4978144;28;20512;-90
2021/09/19 11:13:41;;;;;;;6.90;6.37;;;21.80;99.10;;;;;;4977466;28;20480;-92
2021/09/19 11:16:27;;;;;;;6.93;6.30;;;21.50;99.90;;;;;;4981184;28;20442;-90
2021/09/19 11:18:57;;;;;;;6.07;5.47;;;21.50;99.90;;;;;;4979992;28;20530;-92
2021/09/19 11:21:37;;;;;;;6.47;5.87;;;21.50;99.90;;;;;;4976415;28;20447;-90
2021/09/19 11:24:07;;;;;;;7.90;5.80;;;21.50;99.90;;;;;;4974286;28;21064;-92
2021/09/19 11:26:36;;;;;;;6.30;5.80;;;21.10;99.90;;;;;;4985621;28;20442;-88
2021/09/19 11:29:06;;;;;;;5.97;5.40;;;20.90;99.90;;;;;;4976751;28;20450;-90
2021/09/19 11:31:34;;;;;;;6.57;6.07;;;20.80;99.90;;;;;;4975311;28;20453;-90
2021/09/19 11:34:08;;;;;;;5.87;5.30;;;21.20;99.90;;;;;;4975929;28;20557;-90
2021/09/19 11:36:35;;;;;;;6.00;5.50;;;;;;;;;;4976117;28;20454;-91
2021/09/19 11:39:03;;;;;;;5.60;5.20;;;;;;;;;;4976748;28;20505;-91
2021/09/19 11:41:30;;;;;;;7.07;6.37;;;;;;;;;;4976886;28;20985;-91
2021/09/19 11:43:57;;;;;;;6.23;5.73;;;;;;;;;;4981154;28;20446;-90
2021/09/19 11:46:26;;;;;;;6.30;5.73;;;20.90;99.90;;;;;;4980957;28;20453;-91
2021/09/19 11:48:55;;;;;;;5.27;4.87;;;22.30;99.90;;;;;;4982410;28;20454;-91
2021/09/19 11:51:24;;;;;;;5.37;4.83;;;21.60;99.90;;;;;;4981395;28;20454;-92
2021/09/19 11:53:53;;;;;;;7.33;6.73;;;20.60;99.90;;;;;;4979198;28;21421;-93
2021/09/19 11:56:30;;;;;;;7.20;5.77;;;20.70;99.90;;;;;;4977228;28;20446;-91
2021/09/19 11:58:57;;;;;;;7.23;6.63;;;;;;;;;;5037760;23;20528;-93
2021/09/19 12:01:27;;;;;;;7.60;5.80;;;21.00;99.90;;;;;;4993320;28;20441;-93
2021/09/19 12:03:54;;;;;;;6.70;4.40;;;;;;;;;;4994027;28;20446;-92
2021/09/19 12:06:29;;;;;;;6.53;5.93;;;;;;;;;;5000384;28;20445;-94
2021/09/19 12:08:56;;;;;;;5.60;4.73;;;;;;;;;;5001110;28;20467;-93
2021/09/19 12:11:39;;;;;;;4.77;4.37;;;23.50;99.90;;;;;;5002274;28;20434;-94
2021/09/19 12:14:13;;;;;;;5.57;5.10;;;;;;;;;;4996786;28;20454;-94
2021/09/19 12:16:41;;;;;;;6.50;6.00;;;;;;;;;;4982851;28;20441;-93
2021/09/19 12:19:19;;;;;;;5.23;4.73;;;;;;;;;;4964164;29;20516;-94
2021/09/19 12:21:57;;;;;;;6.00;5.50;;;24.00;97.10;;;;;;4965930;29;20447;-93
2021/09/19 12:24:24;;;;;;;4.90;4.50;;;;;;;;;;4965694;28;20455;-92
2021/09/19 12:26:51;;;;;;;5.70;5.20;;;;;;;;;;4963004;29;20454;-94
2021/09/19 12:29:51;;;;;;;5.73;5.20;;;;;;;;;;4967262;29;20443;-95
2021/09/19 12:32:19;;;;;;;6.03;5.53;;;;;;;;;;4944056;29;20475;-95
2021/09/19 12:34:47;;;;;;;5.80;5.30;;;;;;;;;;4964853;29;20458;-93
2021/09/19 12:37:18;;;;;;;6.27;5.67;;;;;;;;;;4982000;28;20572;-94
2021/09/19 12:40:02;;;;;;;4.70;4.30;;;21.50;99.90;;;;;;5000207;28;20484;-92
2021/09/19 12:42:31;;;;;;;6.03;4.97;;;21.70;99.90;;;;;;5001574;28;20449;-91
2021/09/19 12:44:59;;;;;;;5.80;4.90;;;;;;;;;;4996606;28;20449;-93
2021/09/19 12:47:31;;;;;;;5.77;5.27;;;21.10;99.90;;;;;;4997997;28;20921;-93
2021/09/19 12:49:59;;;;;;;5.63;4.90;;;20.90;99.90;;;;;;4998329;28;20429;-92
2021/09/19 12:52:32;;;;;;;5.83;4.90;;;20.80;99.90;;;;;;4994950;28;20426;-93
2021/09/19 12:55:01;;;;;;;5.00;4.60;;;20.60;99.90;;;;;;4961276;29;20841;-92
2021/09/19 12:57:31;;;;;;;6.27;5.77;;;20.40;99.90;;;;;;4962441;28;20482;-93
2021/09/19 12:59:58;;;;;;;5.47;4.97;;;;;;;;;;4961545;29;20442;-91
2021/09/19 13:02:26;;;;;;;4.63;4.33;;;;;;;;;;4966312;28;20932;-92
2021/09/19 13:04:54;;;;;;;5.00;4.50;;;;;;;;;;4988826;28;20442;-93
2021/09/19 13:07:21;;;;;;;7.17;5.87;;;;;;;;;;4978016;28;20459;-92
2021/09/19 13:09:50;;;;;;;5.10;4.70;;;;;;;;;;4981260;28;20504;-94
2021/09/19 13:12:24;;;;;;;5.27;4.77;;;;;;;;;;4987402;28;20454;-95
2021/09/19 13:14:55;;;;;;;6.20;5.60;;;;;;;;;;4993773;28;20453;-93
2021/09/19 13:17:32;;;;;;;5.57;5.07;;;21.20;99.90;;;;;;5046569;23;20520;-93
2021/09/19 13:19:59;;;;;;;5.03;4.60;;;;;;;;;;5161296;23;20564;-95
2021/09/19 13:22:27;;;;;;;6.20;5.60;;;;;;;;;;5079344;28;20492;-94
2021/09/19 13:24:55;;;;;;;4.47;4.07;;;;;;;;;;5074474;28;20434;-94
2021/09/19 13:27:26;;;;;;;7.13;5.30;;;;;;;;;;5080617;28;20460;-96
2021/09/19 13:30:10;;;;;;;5.50;5.00;;;;;;;;;;5053739;28;20438;-94
2021/09/19 13:32:37;;;;;;;5.50;5.00;;;;;;;;;;5059559;28;20945;-94
2021/09/19 13:35:05;;;;;;;5.10;4.60;;;;;;;;;;5071357;28;20435;-93
2021/09/19 13:37:38;;;;;;;5.43;5.03;;;22.50;99.90;;;;;;5102731;22;20489;-93
2021/09/19 13:40:11;;;;;;;5.50;5.10;;;21.90;99.90;;;;;;5087657;28;20441;-91
2021/09/19 13:42:40;;;;;;;5.20;4.80;;;21.30;99.90;;;;;;5086841;28;20446;-92
2021/09/19 13:45:10;;;;;;;5.50;5.00;;;21.00;99.90;;;;;;5060513;28;20476;-93
2021/09/19 13:47:39;;;;;;;5.97;5.33;;;;;;;;;;5088997;28;20517;-92
2021/09/19 13:50:15;;;;;;;5.50;5.00;;;;;;;;;;5070668;22;20498;-92
2021/09/19 13:52:42;;;;;;;5.63;5.00;;;;;;;;;;5034434;28;20462;-91
2021/09/19 13:55:13;;;;;;;4.90;4.50;;;21.80;99.90;;;;;;5089497;22;20509;-92
2021/09/19 13:57:43;;;;;;;5.23;4.80;;;;;;;;;;5064874;28;20953;-91
2021/09/19 14:00:13;;;;;;;5.37;4.87;;;22.50;99.90;;;;;;5038607;28;20522;-93
2021/09/19 14:02:40;;;;;;;6.70;5.87;;;;;;;;;;5031261;28;20443;-94
2021/09/19 14:05:08;;;;;;;5.07;4.57;;;22.30;99.90;;;;;;5037565;28;20424;-92
2021/09/19 14:07:36;;;;;;;5.73;5.27;;;;;;;;;;5037772;28;20440;-93
2021/09/19 14:10:03;;;;;;;6.17;5.67;;;;;;;;;;5037261;28;20454;-93
2021/09/19 14:12:31;;;;;;;5.03;4.53;;;;;;;;;;5037411;28;20462;-92
2021/09/19 14:14:59;;;;;;;5.00;4.60;;;;;;;;;;5051301;28;20450;-95
2021/09/19 14:17:26;;;;;;;5.00;4.30;;;;;;;;;;5057228;28;20466;-93
2021/09/19 14:19:53;;;;;;;5.00;4.60;;;;;;;;;;5058966;28;20486;-94